createdAt,value
2022-08-24T00:02:18.093Z,85.15
2022-08-24T00:04:48.681Z,85.79
2022-08-24T00:07:27.551Z,85.40
2022-08-24T00:09:57.143Z,85.09
2022-08-24T00:12:26.331Z,85.06
2022-08-24T00:14:56.021Z,86.22
2022-08-24T00:17:25.779Z,86.44
2022-08-24T00:19:56.519Z,86.67
2022-08-24T00:22:26.202Z,86.76
2022-08-24T00:24:54.474Z,86.81
2022-08-24T00:27:23.486Z,87.79
2022-08-24T00:29:52.037Z,88.68
2022-08-24T00:32:23.481Z,89.17
2022-08-24T00:34:58.743Z,88.71
2022-08-24T00:37:29.141Z,88.38
2022-08-24T00:39:59.614Z,88.56
2022-08-24T00:42:29.385Z,88.54
2022-08-24T00:45:01.433Z,89.58
2022-08-24T00:47:37.424Z,90.10
2022-08-24T00:50:11.908Z,91.44
2022-08-24T00:52:45.336Z,91.81
2022-08-24T00:55:17.823Z,91.78
2022-08-24T00:57:49.778Z,91.32
2022-08-24T01:00:21.173Z,91.88
2022-08-24T01:02:53.290Z,92.37
2022-08-24T01:05:23.359Z,94.07
2022-08-24T01:07:52.535Z,94.99
2022-08-24T01:10:25.258Z,95.15
2022-08-24T01:13:01.049Z,96.39
2022-08-24T01:15:30.365Z,97.79
2022-08-24T01:18:16.197Z,98.63
2022-08-24T01:20:56.216Z,99.05
2022-08-24T01:23:39.066Z,99.58
2022-08-24T01:26:09.555Z,99.78
2022-08-24T01:28:42.166Z,100.00
2022-08-24T01:31:10.888Z,99.88
2022-08-24T01:33:40.823Z,99.77
2022-08-24T01:36:16.442Z,100.00
2022-08-24T01:38:47.561Z,100.00
2022-08-24T01:41:17.644Z,100.00
2022-08-24T01:43:45.925Z,100.00
2022-08-24T01:46:14.124Z,100.00
2022-08-24T01:48:42.818Z,100.00
2022-08-24T01:51:11.272Z,100.00
2022-08-24T01:53:41.070Z,100.00
2022-08-24T01:56:11.165Z,100.00
2022-08-24T01:58:45.642Z,100.00
2022-08-24T02:01:20.142Z,100.00
2022-08-24T02:03:48.484Z,100.00
2022-08-24T02:06:20.917Z,100.00
2022-08-24T02:08:49.248Z,100.00
2022-08-24T02:11:19.492Z,100.00
2022-08-24T02:13:47.921Z,100.00
2022-08-24T02:16:16.637Z,100.00
2022-08-24T02:18:45.088Z,100.00
2022-08-24T02:21:17.038Z,100.00
2022-08-24T02:23:45.483Z,100.00
2022-08-24T02:26:14.831Z,100.00
2022-08-24T02:28:45.155Z,100.00
2022-08-24T02:31:15.189Z,100.00
2022-08-24T02:33:43.994Z,100.00
2022-08-24T02:36:25.646Z,100.00
2022-08-24T02:38:55.324Z,100.00
2022-08-24T02:41:24.829Z,100.00
2022-08-24T02:43:56.956Z,100.00
2022-08-24T02:46:27.636Z,100.00
2022-08-24T02:49:10.431Z,100.00
2022-08-24T02:51:44.160Z,100.00
2022-08-24T02:54:18.488Z,100.00
2022-08-24T02:56:48.364Z,100.00
2022-08-24T02:59:18.792Z,100.00
2022-08-24T03:01:50.064Z,100.00
2022-08-24T03:04:18.890Z,100.00
2022-08-24T03:06:47.616Z,100.00
2022-08-24T03:09:17.382Z,100.00
2022-08-24T03:11:50.582Z,100.00
2022-08-24T03:14:22.041Z,100.00
2022-08-24T03:16:50.791Z,100.00
2022-08-24T03:19:20.528Z,100.00
2022-08-24T03:21:48.778Z,100.00
2022-08-24T03:24:17.501Z,100.00
2022-08-24T03:26:45.574Z,100.00
2022-08-24T03:29:15.841Z,100.00
2022-08-24T03:31:46.550Z,100.00
2022-08-24T03:34:15.554Z,100.00
2022-08-24T03:36:46.734Z,100.00
2022-08-24T03:39:15.649Z,100.00
2022-08-24T03:41:44.557Z,100.00
2022-08-24T03:44:13.015Z,100.00
2022-08-24T03:46:42.086Z,100.00
2022-08-24T03:49:12.077Z,100.00
2022-08-24T03:51:40.993Z,100.00
2022-08-24T03:54:11.705Z,100.00
2022-08-24T03:56:42.692Z,100.00
2022-08-24T03:59:12.257Z,100.00
2022-08-24T04:01:41.057Z,100.00
2022-08-24T04:04:09.326Z,100.00
2022-08-24T04:06:44.554Z,100.00
2022-08-24T04:09:13.413Z,100.00
2022-08-24T04:11:46.288Z,100.00
2022-08-24T04:14:23.601Z,100.00
2022-08-24T04:16:57.388Z,100.00
2022-08-24T04:19:29.232Z,100.00
2022-08-24T04:21:59.262Z,100.00
2022-08-24T04:24:28.289Z,100.00
2022-08-24T04:26:56.618Z,100.00
2022-08-24T04:29:25.766Z,100.00
2022-08-24T04:31:54.992Z,100.00
2022-08-24T04:34:24.092Z,100.00
2022-08-24T04:36:52.224Z,100.00
2022-08-24T04:39:23.536Z,100.00
2022-08-24T04:41:55.396Z,100.00
2022-08-24T04:44:23.709Z,100.00
2022-08-24T04:46:52.212Z,100.00
2022-08-24T04:49:20.827Z,100.00
2022-08-24T04:51:49.654Z,100.00
2022-08-24T04:54:18.275Z,100.00
2022-08-24T04:56:47.954Z,100.00
2022-08-24T04:59:16.715Z,100.00
2022-08-24T05:01:46.118Z,100.00
2022-08-24T05:04:14.725Z,100.00
2022-08-24T05:06:43.268Z,100.00
2022-08-24T05:09:12.469Z,100.00
2022-08-24T05:11:41.891Z,100.00
2022-08-24T05:14:19.650Z,100.00
2022-08-24T05:16:53.104Z,100.00
2022-08-24T05:19:23.414Z,100.00
2022-08-24T05:21:52.269Z,100.00
2022-08-24T05:24:21.300Z,100.00
2022-08-24T05:26:51.541Z,100.00
2022-08-24T05:29:26.631Z,100.00
2022-08-24T05:31:56.238Z,100.00
2022-08-24T05:34:26.025Z,100.00
2022-08-24T05:36:54.973Z,100.00
2022-08-24T05:39:27.010Z,100.00
2022-08-24T05:42:00.007Z,100.00
2022-08-24T05:44:32.023Z,100.00
2022-08-24T05:47:01.260Z,100.00
2022-08-24T05:49:30.337Z,100.00
2022-08-24T05:51:58.982Z,100.00
2022-08-24T05:54:28.533Z,100.00
2022-08-24T05:57:04.843Z,100.00
2022-08-24T05:59:36.888Z,100.00
2022-08-24T06:02:05.916Z,100.00
2022-08-24T06:04:35.465Z,100.00
2022-08-24T06:07:04.497Z,100.00
2022-08-24T06:09:32.933Z,100.00
2022-08-24T06:12:02.231Z,100.00
2022-08-24T06:14:34.655Z,100.00
2022-08-24T06:17:06.762Z,100.00
2022-08-24T06:19:37.424Z,100.00
2022-08-24T06:22:06.309Z,100.00
2022-08-24T06:24:55.449Z,100.00
2022-08-24T06:27:25.714Z,100.00
2022-08-24T06:29:56.721Z,100.00
2022-08-24T06:32:30.640Z,100.00
2022-08-24T06:35:00.118Z,100.00
2022-08-24T06:37:29.479Z,100.00
2022-08-24T06:39:59.598Z,100.00
2022-08-24T06:42:29.656Z,100.00
2022-08-24T06:45:00.420Z,100.00
2022-08-24T06:47:30.736Z,100.00
2022-08-24T06:50:01.620Z,100.00
2022-08-24T06:52:30.454Z,100.00
2022-08-24T06:54:59.157Z,100.00
2022-08-24T06:57:27.650Z,100.00
2022-08-24T06:59:58.726Z,100.00
2022-08-24T07:02:28.438Z,100.00
2022-08-24T07:04:58.563Z,100.00
2022-08-24T07:07:26.958Z,100.00
2022-08-24T07:09:55.969Z,100.00
2022-08-24T07:12:27.323Z,100.00
2022-08-24T07:14:56.005Z,100.00
2022-08-24T07:17:26.491Z,100.00
2022-08-24T07:19:58.532Z,100.00
2022-08-24T07:22:27.649Z,100.00
2022-08-24T07:24:58.084Z,100.00
2022-08-24T07:27:27.646Z,97.79
2022-08-24T07:30:23.130Z,94.51
2022-08-24T07:32:46.220Z,95.16
2022-08-24T07:35:17.834Z,93.79
2022-08-24T07:37:48.589Z,92.39
2022-08-24T07:40:19.819Z,90.24
2022-08-24T07:42:50.883Z,89.66
2022-08-24T07:45:20.026Z,89.07
2022-08-24T07:47:55.193Z,88.03
2022-08-24T07:50:26.885Z,87.39
2022-08-24T07:52:55.483Z,87.42
2022-08-24T07:55:24.034Z,87.09
2022-08-24T07:57:52.476Z,85.97
2022-08-24T08:00:22.025Z,83.47
2022-08-24T08:02:50.766Z,79.44
2022-08-24T08:05:21.856Z,81.08
2022-08-24T08:07:55.781Z,79.88
2022-08-24T08:10:24.654Z,79.48
2022-08-24T08:12:55.361Z,77.14
2022-08-24T08:15:27.159Z,77.93
2022-08-24T08:17:55.876Z,80.38
2022-08-24T08:20:25.068Z,79.09
2022-08-24T08:23:20.935Z,77.08
2022-08-24T08:25:50.049Z,73.00
2022-08-24T08:28:25.731Z,73.51
2022-08-24T08:30:55.361Z,71.30
2022-08-24T08:35:57.973Z,69.03
2022-08-24T08:38:28.988Z,67.80
2022-08-24T08:41:08.807Z,64.76
2022-08-24T08:43:45.145Z,64.28
2022-08-24T08:46:25.735Z,65.15
2022-08-24T08:49:09.169Z,64.50
2022-08-24T08:52:18.242Z,63.04
2022-08-24T08:54:59.636Z,60.46
2022-08-24T08:57:38.622Z,59.31
2022-08-24T09:00:18.058Z,60.16
2022-08-24T09:03:03.298Z,61.09
2022-08-24T09:05:59.042Z,58.93
2022-08-24T09:08:43.847Z,56.71
2022-08-24T09:11:32.629Z,55.58
2022-08-24T09:14:49.257Z,54.76
2022-08-24T09:17:53.922Z,53.79
2022-08-24T09:20:41.581Z,54.34
2022-08-24T09:23:23.673Z,55.19
2022-08-24T09:26:03.993Z,53.60
2022-08-24T09:28:44.691Z,53.76
2022-08-24T09:31:55.260Z,49.66
2022-08-24T09:34:48.360Z,46.42
2022-08-24T09:37:32.724Z,45.97
2022-08-24T09:40:18.709Z,45.15
2022-08-24T09:43:17.505Z,43.83
2022-08-24T09:46:25.570Z,43.19
2022-08-24T09:49:21.990Z,41.13
2022-08-24T09:52:10.819Z,40.57
2022-08-24T09:55:08.665Z,40.25
2022-08-24T09:58:00.499Z,40.33
2022-08-24T10:00:35.782Z,40.06
2022-08-24T10:03:15.733Z,38.11
2022-08-24T10:06:04.997Z,38.47
2022-08-24T10:08:59.146Z,39.08
2022-08-24T10:11:38.124Z,38.62
2022-08-24T10:14:18.198Z,38.92
2022-08-24T10:16:56.573Z,38.66
2022-08-24T10:19:47.798Z,37.98
2022-08-24T10:22:25.627Z,36.90
2022-08-24T10:25:11.526Z,35.97
2022-08-24T10:27:57.038Z,35.80
2022-08-24T10:30:59.377Z,35.21
2022-08-24T10:33:31.110Z,34.67
2022-08-24T10:36:42.500Z,35.73
2022-08-24T10:39:44.007Z,36.43
2022-08-24T10:42:54.939Z,36.13
2022-08-24T10:45:58.870Z,34.83
2022-08-24T10:48:51.570Z,33.48
2022-08-24T10:51:36.373Z,34.84
2022-08-24T10:54:09.019Z,34.68
2022-08-24T10:56:53.768Z,33.87
2022-08-24T10:59:27.313Z,32.75
2022-08-24T11:02:11.927Z,32.94
2022-08-24T11:04:41.851Z,32.78
2022-08-24T11:07:21.770Z,34.08
2022-08-24T11:09:53.695Z,34.08
2022-08-24T11:12:36.385Z,33.74
2022-08-24T11:15:11.701Z,33.35
2022-08-24T11:17:56.751Z,32.71
2022-08-24T11:20:32.125Z,33.17
2022-08-24T11:23:05.506Z,32.71
2022-08-24T11:25:40.475Z,32.27
2022-08-24T11:28:22.057Z,32.53
2022-08-24T11:30:51.284Z,31.55
2022-08-24T11:33:31.028Z,32.43
2022-08-24T11:36:02.918Z,34.91
2022-08-24T11:38:35.105Z,33.33
2022-08-24T11:41:10.228Z,32.50
2022-08-24T11:44:02.623Z,30.86
2022-08-24T11:46:38.218Z,30.36
2022-08-24T11:49:14.231Z,30.03
2022-08-24T11:51:56.584Z,30.23
2022-08-24T11:54:34.231Z,30.00
2022-08-24T11:57:09.665Z,29.43
2022-08-24T11:59:50.925Z,29.26
2022-08-24T12:02:29.258Z,29.15
2022-08-24T12:05:05.694Z,30.21
2022-08-24T12:07:51.718Z,30.73
2022-08-24T12:10:35.531Z,30.48
2022-08-24T12:13:10.865Z,30.26
2022-08-24T12:15:51.851Z,29.89
2022-08-24T12:18:32.922Z,30.04
2022-08-24T12:21:01.850Z,29.93
2022-08-24T12:23:41.399Z,30.51
2022-08-24T12:26:13.784Z,30.31
2022-08-24T12:28:53.641Z,29.82
2022-08-24T12:31:38.718Z,28.81
2022-08-24T12:34:14.805Z,29.07
2022-08-24T12:36:53.573Z,28.93
2022-08-24T12:39:27.000Z,29.20
2022-08-24T12:42:07.938Z,28.68
2022-08-24T12:44:47.575Z,29.15
2022-08-24T12:47:27.440Z,29.31
2022-08-24T12:50:02.500Z,29.53
2022-08-24T12:52:57.869Z,30.08
2022-08-24T12:56:19.261Z,29.60
2022-08-24T12:59:06.453Z,29.78
2022-08-24T13:01:38.238Z,28.99
2022-08-24T13:04:36.486Z,28.99
2022-08-24T13:07:09.485Z,28.75
2022-08-24T13:09:43.804Z,28.80
2022-08-24T13:12:50.368Z,28.58
2022-08-24T13:15:23.527Z,29.46
2022-08-24T13:17:53.398Z,29.20
2022-08-24T13:20:27.901Z,28.76
2022-08-24T13:23:07.898Z,28.90
2022-08-24T13:25:56.967Z,29.37
2022-08-24T13:28:46.616Z,29.92
2022-08-24T13:31:25.310Z,29.37
2022-08-24T13:33:57.434Z,28.36
2022-08-24T13:36:49.883Z,28.69
2022-08-24T13:39:56.354Z,27.96
2022-08-24T13:42:45.335Z,28.44
2022-08-24T13:45:23.285Z,28.56
2022-08-24T13:48:04.702Z,27.86
2022-08-24T13:50:40.025Z,28.05
2022-08-24T13:53:31.813Z,27.87
2022-08-24T13:56:45.572Z,28.37
2022-08-24T13:59:22.715Z,28.44
2022-08-24T14:02:06.738Z,28.35
2022-08-24T14:04:43.384Z,27.72
2022-08-24T14:07:21.969Z,27.33
2022-08-24T14:10:08.860Z,26.70
2022-08-24T14:13:00.213Z,26.92
2022-08-24T14:15:49.266Z,27.29
2022-08-24T14:18:26.695Z,27.27
2022-08-24T14:21:09.353Z,27.78
2022-08-24T14:24:01.028Z,27.64
2022-08-24T14:27:18.074Z,28.19
2022-08-24T14:29:49.340Z,28.29
2022-08-24T14:32:46.414Z,27.91
2022-08-24T14:35:36.371Z,28.19
2022-08-24T14:38:23.010Z,27.68
2022-08-24T14:41:08.038Z,28.42
2022-08-24T14:43:58.264Z,27.72
2022-08-24T14:46:37.394Z,27.64
2022-08-24T14:49:15.657Z,27.25
2022-08-24T14:52:11.606Z,27.28
2022-08-24T14:54:54.457Z,27.53
2022-08-24T14:58:17.848Z,27.46
2022-08-24T15:01:13.944Z,27.94
2022-08-24T15:04:17.919Z,28.06
2022-08-24T15:07:24.869Z,28.39
2022-08-24T15:09:57.114Z,28.44
2022-08-24T15:12:35.564Z,28.60
2022-08-24T15:15:13.376Z,28.41
2022-08-24T15:17:53.709Z,28.26
2022-08-24T15:20:49.367Z,28.70
2022-08-24T15:23:25.128Z,29.25
2022-08-24T15:25:57.179Z,29.11
2022-08-24T15:28:28.772Z,29.20
2022-08-24T15:31:00.329Z,28.74
2022-08-24T15:33:32.286Z,28.23
2022-08-24T15:36:12.142Z,28.72
2022-08-24T15:38:42.280Z,28.98
2022-08-24T15:41:19.162Z,29.45
2022-08-24T15:43:53.664Z,29.31
2022-08-24T15:46:28.047Z,29.83
2022-08-24T15:49:04.726Z,30.31
2022-08-24T15:51:45.189Z,29.84
2022-08-24T15:54:31.239Z,30.40
2022-08-24T15:57:02.850Z,30.48
2022-08-24T15:59:47.354Z,29.93
2022-08-24T16:02:30.780Z,30.04
2022-08-24T16:05:15.244Z,30.12
2022-08-24T16:08:10.305Z,29.45
2022-08-24T16:10:41.998Z,29.70
2022-08-24T16:13:20.872Z,29.42
2022-08-24T16:15:51.513Z,29.75
2022-08-24T16:18:32.309Z,29.59
2022-08-24T16:21:01.986Z,29.62
2022-08-24T16:23:33.466Z,29.47
2022-08-24T16:26:21.285Z,29.26
2022-08-24T16:28:50.877Z,29.25
2022-08-24T16:31:53.642Z,29.15
2022-08-24T16:34:31.238Z,29.03
2022-08-24T16:37:00.073Z,28.73
2022-08-24T16:39:30.749Z,28.65
2022-08-24T16:42:05.507Z,28.68
2022-08-24T16:44:38.581Z,28.31
2022-08-24T16:47:09.082Z,27.97
2022-08-24T16:49:38.070Z,27.56
2022-08-24T16:52:06.852Z,28.01
2022-08-24T16:54:37.478Z,27.88
2022-08-24T16:57:12.852Z,27.63
2022-08-24T16:59:44.287Z,27.74
2022-08-24T17:02:13.224Z,28.37
2022-08-24T17:04:42.838Z,28.47
2022-08-24T17:07:14.734Z,28.51
2022-08-24T17:09:47.914Z,28.42
2022-08-24T17:12:17.254Z,28.44
2022-08-24T17:14:46.331Z,28.82
2022-08-24T17:17:17.044Z,28.93
2022-08-24T17:19:53.442Z,29.50
2022-08-24T17:22:24.844Z,29.37
2022-08-24T17:24:57.412Z,30.14
2022-08-24T17:27:32.758Z,30.52
2022-08-24T17:30:02.220Z,31.56
2022-08-24T17:32:30.869Z,31.31
2022-08-24T17:35:03.365Z,32.13
2022-08-24T17:37:32.338Z,32.43
2022-08-24T17:40:04.874Z,32.49
2022-08-24T17:42:50.425Z,33.40
2022-08-24T17:45:23.014Z,33.71
2022-08-24T17:47:53.036Z,34.29
2022-08-24T17:50:25.425Z,34.65
2022-08-24T17:53:06.648Z,35.47
2022-08-24T17:55:36.793Z,34.53
2022-08-24T17:58:08.407Z,34.14
2022-08-24T18:00:39.713Z,34.16
2022-08-24T18:03:10.547Z,34.18
2022-08-24T18:05:42.296Z,34.70
2022-08-24T18:08:12.109Z,34.70
2022-08-24T18:10:42.517Z,34.64
2022-08-24T18:13:12.354Z,35.13
2022-08-24T18:15:41.347Z,35.96
2022-08-24T18:18:10.565Z,36.93
2022-08-24T18:20:42.069Z,37.55
2022-08-24T18:23:11.827Z,37.97
2022-08-24T18:25:48.243Z,38.20
2022-08-24T18:28:18.738Z,38.56
2022-08-24T18:30:48.548Z,38.73
2022-08-24T18:33:17.705Z,39.45
2022-08-24T18:35:47.802Z,39.92
2022-08-24T18:38:16.400Z,40.15
2022-08-24T18:40:52.877Z,40.02
2022-08-24T18:43:24.651Z,40.64
2022-08-24T18:45:54.763Z,40.88
2022-08-24T18:48:24.222Z,40.83
2022-08-24T18:50:53.473Z,41.07
2022-08-24T18:53:24.739Z,40.90
2022-08-24T18:55:55.931Z,41.79
2022-08-24T18:58:24.494Z,42.07
2022-08-24T19:00:53.949Z,42.00
2022-08-24T19:03:25.420Z,41.80
2022-08-24T19:05:54.839Z,42.21
2022-08-24T19:08:23.276Z,42.68
2022-08-24T19:10:54.235Z,42.93
2022-08-24T19:13:26.209Z,41.91
2022-08-24T19:15:56.202Z,42.40
2022-08-24T19:18:25.043Z,42.83
2022-08-24T19:20:59.242Z,42.83
2022-08-24T19:23:31.383Z,42.98
2022-08-24T19:26:03.268Z,43.17
2022-08-24T19:28:32.364Z,44.00
2022-08-24T19:31:04.120Z,44.62
2022-08-24T19:33:38.888Z,45.35
2022-08-24T19:36:10.141Z,46.12
2022-08-24T19:38:39.999Z,46.35
2022-08-24T19:41:14.270Z,46.94
2022-08-24T19:43:57.336Z,46.88
2022-08-24T19:46:26.749Z,47.90
2022-08-24T19:48:56.879Z,48.13
2022-08-24T19:51:27.022Z,47.73
2022-08-24T19:53:58.034Z,48.15
2022-08-24T19:56:28.257Z,48.41
2022-08-24T19:59:02.432Z,48.72
2022-08-24T20:01:41.894Z,48.35
2022-08-24T20:04:10.526Z,49.19
2022-08-24T20:06:41.363Z,49.15
2022-08-24T20:09:10.809Z,50.04
2022-08-24T20:11:41.149Z,50.44
2022-08-24T20:14:09.796Z,50.57
2022-08-24T20:16:42.312Z,50.38
2022-08-24T20:19:12.958Z,51.45
2022-08-24T20:21:41.668Z,51.59
2022-08-24T20:24:12.823Z,52.03
2022-08-24T20:26:46.122Z,51.55
2022-08-24T20:29:15.673Z,52.04
2022-08-24T20:31:45.514Z,52.20
2022-08-24T20:34:17.127Z,53.47
2022-08-24T20:36:50.616Z,53.88
2022-08-24T20:39:23.202Z,53.51
2022-08-24T20:41:54.819Z,53.62
2022-08-24T20:44:25.216Z,54.34
2022-08-24T20:46:57.120Z,54.44
2022-08-24T20:49:28.290Z,54.33
2022-08-24T20:52:02.121Z,54.91
2022-08-24T20:54:30.685Z,55.83
2022-08-24T20:57:03.697Z,56.47
2022-08-24T20:59:32.478Z,56.51
2022-08-24T21:02:03.574Z,56.72
2022-08-24T21:04:34.643Z,56.89
2022-08-24T21:07:03.025Z,57.10
2022-08-24T21:09:34.270Z,57.80
2022-08-24T21:12:04.780Z,58.58
2022-08-24T21:14:33.476Z,58.18
2022-08-24T21:17:04.826Z,59.11
2022-08-24T21:19:36.160Z,60.22
2022-08-24T21:22:05.430Z,60.86
2022-08-24T21:24:35.063Z,61.31
2022-08-24T21:27:07.526Z,62.85
2022-08-24T21:29:37.762Z,64.19
2022-08-24T21:32:23.538Z,64.37
2022-08-24T21:34:52.149Z,64.53
2022-08-24T21:37:21.405Z,65.90
2022-08-24T21:39:50.252Z,67.07
2022-08-24T21:42:21.041Z,67.76
2022-08-24T21:44:49.488Z,68.88
2022-08-24T21:47:17.978Z,68.47
2022-08-24T21:49:47.426Z,69.61
2022-08-24T21:52:16.032Z,70.55
2022-08-24T21:54:45.315Z,70.86
2022-08-24T21:57:13.646Z,71.00
2022-08-24T21:59:46.924Z,70.63
2022-08-24T22:02:20.659Z,72.19
2022-08-24T22:04:56.142Z,73.35
2022-08-24T22:07:25.754Z,73.05
2022-08-24T22:09:57.884Z,74.27
2022-08-24T22:12:26.515Z,74.89
2022-08-24T22:14:56.925Z,75.80
2022-08-24T22:17:26.409Z,74.96
2022-08-24T22:19:55.177Z,75.56
2022-08-24T22:22:24.323Z,76.28
2022-08-24T22:24:59.898Z,76.01
2022-08-24T22:27:28.426Z,75.72
2022-08-24T22:29:59.064Z,77.30
2022-08-24T22:32:28.290Z,77.37
2022-08-24T22:34:58.393Z,77.92
2022-08-24T22:37:27.138Z,76.97
2022-08-24T22:39:55.653Z,78.35
2022-08-24T22:42:23.958Z,78.72
2022-08-24T22:44:52.444Z,79.63
2022-08-24T22:47:24.242Z,79.92
2022-08-24T22:49:54.878Z,78.46
2022-08-24T22:52:23.397Z,79.42
2022-08-24T22:54:51.844Z,80.69
2022-08-24T22:57:20.235Z,82.06
2022-08-24T22:59:50.486Z,81.15
2022-08-24T23:02:19.994Z,81.97
2022-08-24T23:04:52.917Z,82.53
2022-08-24T23:07:22.112Z,83.53
2022-08-24T23:09:51.249Z,84.16
2022-08-24T23:12:24.328Z,84.45
2022-08-24T23:14:53.686Z,85.62
2022-08-24T23:17:23.486Z,87.02
2022-08-24T23:20:01.755Z,86.67
2022-08-24T23:22:33.821Z,86.71
2022-08-24T23:25:03.716Z,87.02
2022-08-24T23:27:37.591Z,87.68
2022-08-24T23:30:10.531Z,87.71
2022-08-24T23:32:39.203Z,87.97
2022-08-24T23:35:12.288Z,88.87
2022-08-24T23:37:42.306Z,88.25
2022-08-24T23:40:11.821Z,88.11
2022-08-24T23:42:40.229Z,88.78
2022-08-24T23:45:11.945Z,88.66
2022-08-24T23:47:41.077Z,89.05
2022-08-24T23:50:12.313Z,89.52
2022-08-24T23:52:41.559Z,90.32
2022-08-24T23:55:21.082Z,90.24
2022-08-24T23:57:52.649Z,90.66
